Time;durP1;ratioP1;P1;durP2;ratioP2;P2;SDS_P1;SDS_P2;PMS_P1;PMS_P2;Temp;Humidity;BMP_temperature;BMP_pressure;BME280_temperature;BME280_humidity;BME280_pressure;Samples;Min_cycle;Max_cycle;Signal;HPM_P1;HPM_P2
2023/07/18 00:02:17;;;;;;;;;;;;;;;14.73;63.78;102063.38;4947267;28;19922;-76
2023/07/18 00:04:43;;;;;;;;;;;;;;;14.70;64.58;102065.25;4934626;29;19922;-76
2023/07/18 00:07:08;;;;;;;;;;;;;;;14.66;63.83;102072.41;4935254;29;20021;-76
2023/07/18 00:09:37;;;;;;;;;;;;;;;14.62;65.26;102066.28;4935457;29;19922;-76
2023/07/18 00:12:02;;;;;;;;;;;;;;;14.61;66.34;102069.88;4952927;28;19918;-76
2023/07/18 00:14:29;;;;;;;;;;;;;;;14.63;66.10;102073.34;4935559;29;19929;-76
2023/07/18 00:16:55;;;;;;;;;;;;;;;14.72;65.72;102076.78;4932357;29;20018;-76
2023/07/18 00:19:20;;;;;;;;;;;;;;;14.74;66.08;102077.63;4932028;29;20017;-76
2023/07/18 00:21:47;;;;;;;;;;;;;;;14.71;65.27;102078.56;4932179;29;19922;-76
2023/07/18 00:24:13;;;;;;;;;;;;;;;14.68;66.61;102072.41;4932332;29;19930;-76
2023/07/18 00:26:38;;;;;;;;;;;;;;;14.61;65.93;102071.63;4933679;29;19931;-76
2023/07/18 00:29:03;;;;;;;;;;;;;;;14.51;64.69;102062.88;4933761;29;19919;-76
2023/07/18 00:31:31;;;;;;;;;;;;;;;14.47;66.41;102069.19;4933739;29;19923;-76
2023/07/18 00:33:57;;;;;;;;;;;;;;;14.43;66.66;102075.50;4948397;29;19919;-76
2023/07/18 00:36:22;;;;;;;;;;;;;;;14.37;67.00;102076.47;4948255;29;20026;-76
2023/07/18 00:38:48;;;;;;;;;;;;;;;14.33;67.23;102074.78;4932093;29;19945;-76
2023/07/18 00:41:14;;;;;;;;;;;;;;;14.31;67.13;102073.03;4933388;29;20293;-76
2023/07/18 00:43:39;;;;;;;;;;;;;;;14.30;67.44;102077.50;4948191;29;20021;-76
2023/07/18 00:46:05;;;;;;;;;;;;;;;14.29;67.11;102075.75;4932025;29;20026;-76
2023/07/18 00:48:34;;;;;;;;;;;;;;;14.23;67.30;102067.84;4933471;29;19922;-76
2023/07/18 00:51:04;;;;;;;;;;;;;;;14.17;69.60;102075.97;4932071;29;20013;-76
2023/07/18 00:53:30;;;;;;;;;;;;;;;14.09;69.56;102076.06;4947898;29;19957;-76
2023/07/18 00:55:56;;;;;;;;;;;;;;;14.06;70.84;102072.59;4931853;29;20013;-75
2023/07/18 00:58:22;;;;;;;;;;;;;;;14.01;67.91;102075.31;4932090;29;19999;-76
2023/07/18 01:00:48;;;;;;;;;;;;;;;13.95;68.05;102071.00;4931703;29;19935;-76
2023/07/18 01:03:15;;;;;;;;;;;;;;;13.93;68.35;102066.59;4947733;29;20356;-76
2023/07/18 01:05:41;;;;;;;;;;;;;;;13.87;69.01;102061.34;4916135;29;20290;-76
2023/07/18 01:08:06;;;;;;;;;;;;;;;13.77;68.44;102061.50;4932560;29;19923;-76
2023/07/18 01:10:32;;;;;;;;;;;;;;;13.72;68.70;102066.03;4933549;29;19934;-76
2023/07/18 01:12:58;;;;;;;;;;;;;;;13.67;68.35;102064.31;4932135;29;19918;-76
2023/07/18 01:15:24;;;;;;;;;;;;;;;13.62;69.23;102072.38;4931597;29;19923;-76
2023/07/18 01:17:50;;;;;;;;;;;;;;;13.58;70.34;102062.69;4931907;29;19937;-76
2023/07/18 01:20:18;;;;;;;;;;;;;;;13.57;70.42;102063.56;4916112;29;19955;-76
2023/07/18 01:22:44;;;;;;;;;;;;;;;13.54;70.99;102060.97;4914834;29;20002;-76
2023/07/18 01:25:12;;;;;;;;;;;;;;;13.53;70.45;102059.22;4934762;29;19919;-76
2023/07/18 01:27:38;;;;;;;;;;;;;;;13.51;70.45;102053.91;4919746;29;19958;-75
2023/07/18 01:30:05;;;;;;;;;;;;;;;13.50;70.25;102048.59;4936957;29;19987;-76
2023/07/18 01:32:31;;;;;;;;;;;;;;;13.47;70.85;102052.19;4919790;29;19966;-75
2023/07/18 01:34:57;;;;;;;;;;;;;;;13.45;70.57;102055.78;4936592;29;19962;-75
2023/07/18 01:37:22;;;;;;;;;;;;;;;13.44;71.21;102046.91;4919566;29;19926;-76
2023/07/18 01:39:48;;;;;;;;;;;;;;;13.45;70.99;102037.16;4936737;29;20331;-76
2023/07/18 01:42:13;;;;;;;;;;;;;;;13.44;70.98;102038.94;4919577;29;20403;-76
2023/07/18 01:44:40;;;;;;;;;;;;;;;13.43;71.20;102038.97;4951100;29;19926;-76
2023/07/18 01:47:05;;;;;;;;;;;;;;;13.44;72.52;102038.94;4935188;29;20397;-76
2023/07/18 01:49:31;;;;;;;;;;;;;;;13.48;72.46;102043.31;4903392;29;19923;-76
2023/07/18 01:51:56;;;;;;;;;;;;;;;13.49;72.20;102037.09;4935111;29;20021;-76
2023/07/18 01:54:22;;;;;;;;;;;;;;;13.50;72.37;102040.63;4918841;29;19934;-76
2023/07/18 01:56:48;;;;;;;;;;;;;;;13.51;72.34;102034.41;4902312;29;20009;-76
2023/07/18 01:59:14;;;;;;;;;;;;;;;13.47;72.97;102028.25;4918773;29;19923;-75
2023/07/18 02:01:40;;;;;;;;;;;;;;;13.42;72.22;102024.75;4935148;29;19977;-76
2023/07/18 02:04:05;;;;;;;;;;;;;;;13.38;71.71;102024.84;4927709;29;19997;-76
2023/07/18 02:06:31;;;;;;;;;;;;;;;13.35;72.47;102025.75;4918785;29;20041;-76
2023/07/18 02:08:56;;;;;;;;;;;;;;;13.30;72.00;102024.94;4933460;29;19919;-74
2023/07/18 02:11:21;;;;;;;;;;;;;;;13.27;72.81;102014.34;4900503;29;20001;-74
2023/07/18 02:13:47;;;;;;;;;;;;;;;13.25;73.88;102016.13;4934055;29;19977;-75
2023/07/18 02:16:12;;;;;;;;;;;;;;;13.23;72.82;102013.50;4921774;29;20370;-75
2023/07/18 02:18:37;;;;;;;;;;;;;;;13.21;73.50;102015.28;4954316;28;19945;-75
2023/07/18 02:21:03;;;;;;;;;;;;;;;13.19;73.75;102013.56;4921496;29;19981;-74
2023/07/18 02:23:28;;;;;;;;;;;;;;;13.18;73.62;102018.00;4955153;29;19926;-74
2023/07/18 02:25:54;;;;;;;;;;;;;;;13.19;74.31;102016.22;4954691;29;20725;-75
2023/07/18 02:28:19;;;;;;;;;;;;;;;13.22;74.19;102021.50;4955185;29;19927;-75
2023/07/18 02:30:44;;;;;;;;;;;;;;;13.25;74.23;102024.09;4937386;29;19977;-74
2023/07/18 02:33:10;;;;;;;;;;;;;;;13.25;74.55;102016.13;4955089;29;20383;-74
2023/07/18 02:35:37;;;;;;;;;;;;;;;13.22;74.00;102019.69;4954930;28;20326;-74
2023/07/18 02:38:03;;;;;;;;;;;;;;;13.22;74.50;102019.69;4923757;29;19962;-74
2023/07/18 02:40:29;;;;;;;;;;;;;;;13.22;74.81;102016.16;4955128;29;19931;-75
2023/07/18 02:42:55;;;;;;;;;;;;;;;13.19;74.40;102010.91;4953755;28;19978;-75
2023/07/18 02:45:21;;;;;;;;;;;;;;;13.17;74.55;102010.03;4953469;29;19922;-75
2023/07/18 02:47:46;;;;;;;;;;;;;;;13.16;75.34;102014.47;4953658;29;20354;-75
2023/07/18 02:50:12;;;;;;;;;;;;;;;13.12;75.48;102010.97;4953511;28;19930;-75
2023/07/18 02:52:38;;;;;;;;;;;;;;;13.09;75.30;102016.34;4946332;29;19930;-75
2023/07/18 02:55:04;;;;;;;;;;;;;;;13.08;74.74;102013.69;4939024;28;19918;-75
2023/07/18 02:57:29;;;;;;;;;;;;;;;13.04;74.93;102012.88;4953553;29;20002;-75
2023/07/18 02:59:55;;;;;;;;;;;;;;;13.00;75.62;102016.44;4937335;29;19914;-75
2023/07/18 03:02:20;;;;;;;;;;;;;;;12.97;75.91;102011.19;4954359;29;19923;-75
2023/07/18 03:04:46;;;;;;;;;;;;;;;12.95;75.16;102009.44;4937015;29;20230;-75
2023/07/18 03:07:13;;;;;;;;;;;;;;;12.92;75.21;102013.03;4952908;29;20029;-74
2023/07/18 03:09:38;;;;;;;;;;;;;;;12.89;74.81;102013.06;4936837;29;19985;-74
2023/07/18 03:12:06;;;;;;;;;;;;;;;12.88;75.49;102008.63;4954768;29;19922;-75
2023/07/18 03:14:31;;;;;;;;;;;;;;;12.87;74.57;102012.19;4937115;29;19930;-75
2023/07/18 03:16:56;;;;;;;;;;;;;;;12.84;73.90;102012.25;4953116;29;19930;-75
2023/07/18 03:19:22;;;;;;;;;;;;;;;12.79;74.83;102020.28;4954245;29;20017;-74
2023/07/18 03:21:47;;;;;;;;;;;;;;;12.75;73.47;102013.22;4949609;28;19927;-75
2023/07/18 03:24:12;;;;;;;;;;;;;;;12.76;73.83;102022.06;4942068;29;19923;-75
2023/07/18 03:26:38;;;;;;;;;;;;;;;12.77;74.56;102018.53;4953457;29;20405;-75
2023/07/18 03:29:05;;;;;;;;;;;;;;;12.71;74.35;102008.88;4921397;29;20714;-75
2023/07/18 03:31:31;;;;;;;;;;;;;;;12.69;74.39;102014.19;4919114;29;20009;-75
2023/07/18 03:33:57;;;;;;;;;;;;;;;12.68;74.28;102019.50;4952487;29;20458;-75
2023/07/18 03:36:22;;;;;;;;;;;;;;;12.66;75.49;102013.31;4954166;29;20017;-78
2023/07/18 03:38:48;;;;;;;;;;;;;;;12.62;76.45;102011.63;4953974;29;20020;-78
2023/07/18 03:41:14;;;;;;;;;;;;;;;12.58;75.41;102010.75;4954233;29;20018;-78
2023/07/18 03:43:39;;;;;;;;;;;;;;;12.60;75.16;102018.72;4920839;29;19927;-78
2023/07/18 03:46:04;;;;;;;;;;;;;;;12.62;74.76;102017.81;4953924;29;19914;-78
2023/07/18 03:48:30;;;;;;;;;;;;;;;12.58;74.42;102015.22;4904357;29;19923;-78
2023/07/18 03:50:55;;;;;;;;;;;;;;;12.52;74.84;102015.28;4953890;29;19989;-78
2023/07/18 03:53:20;;;;;;;;;;;;;;;12.43;73.77;102009.16;4936521;29;20077;-78
2023/07/18 03:55:46;;;;;;;;;;;;;;;12.37;74.73;102022.53;4953897;29;20036;-79
2023/07/18 03:58:11;;;;;;;;;;;;;;;12.36;74.81;102011.91;4936589;29;20396;-78
2023/07/18 04:00:36;;;;;;;;;;;;;;;12.34;74.55;102014.59;4953578;29;19934;-78
2023/07/18 04:03:02;;;;;;;;;;;;;;;12.33;75.43;102003.97;4919811;29;20392;-78
2023/07/18 04:05:27;;;;;;;;;;;;;;;12.29;74.34;101994.25;4936219;29;20009;-77
2023/07/18 04:07:53;;;;;;;;;;;;;;;12.27;73.33;101996.97;4951840;28;19928;-78
2023/07/18 04:10:18;;;;;;;;;;;;;;;12.31;75.09;101989.81;4953640;28;20013;-78
2023/07/18 04:12:44;;;;;;;;;;;;;;;12.32;74.47;101991.59;4953550;29;20381;-79
2023/07/18 04:15:10;;;;;;;;;;;;;;;12.29;76.10;101992.53;4936153;29;19986;-78
2023/07/18 04:17:35;;;;;;;;;;;;;;;12.31;75.67;101987.16;4919268;29;20349;-78
2023/07/18 04:20:03;;;;;;;;;;;;;;;12.29;74.65;101984.53;4917020;29;20025;-78
2023/07/18 04:22:29;;;;;;;;;;;;;;;12.27;74.70;101979.25;4916960;29;19919;-75
2023/07/18 04:24:55;;;;;;;;;;;;;;;12.27;74.75;101981.91;4901390;29;19922;-75
2023/07/18 04:27:21;;;;;;;;;;;;;;;12.29;74.99;101986.28;4937603;29;19979;-75
2023/07/18 04:29:46;;;;;;;;;;;;;;;12.29;73.69;101970.38;4934300;29;20255;-75
2023/07/18 04:32:11;;;;;;;;;;;;;;;12.30;76.39;101980.09;4901049;29;19922;-75
2023/07/18 04:34:37;;;;;;;;;;;;;;;12.33;76.48;101978.28;4916891;29;19927;-75
2023/07/18 04:37:02;;;;;;;;;;;;;;;12.35;75.93;101973.84;4933844;29;20160;-75
2023/07/18 04:39:27;;;;;;;;;;;;;;;12.39;76.12;101978.22;4931555;29;19919;-75
2023/07/18 04:41:53;;;;;;;;;;;;;;;12.43;76.48;101976.41;4932039;29;19937;-75
2023/07/18 04:44:18;;;;;;;;;;;;;;;12.45;76.49;101967.53;4931977;29;19919;-75
2023/07/18 04:46:43;;;;;;;;;;;;;;;12.51;78.45;101978.97;4933763;29;19922;-75
2023/07/18 04:49:09;;;;;;;;;;;;;;;12.56;78.02;101967.41;4932218;29;19931;-75
2023/07/18 04:51:35;;;;;;;;;;;;;;;12.58;76.63;101973.56;4900752;29;19923;-75
2023/07/18 04:54:00;;;;;;;;;;;;;;;12.61;77.59;101972.66;4933502;29;19919;-75
2023/07/18 04:56:25;;;;;;;;;;;;;;;12.63;76.91;101982.34;4933479;29;19918;-75
2023/07/18 04:58:51;;;;;;;;;;;;;;;12.66;78.04;101977.03;4910016;29;19974;-75
2023/07/18 05:01:16;;;;;;;;;;;;;;;12.69;79.94;101984.09;4933197;29;19923;-74
2023/07/18 05:03:42;;;;;;;;;;;;;;;12.74;77.31;101976.06;4921919;29;19922;-75
2023/07/18 05:06:07;;;;;;;;;;;;;;;12.79;76.02;101975.09;4925479;29;19941;-74
2023/07/18 05:08:32;;;;;;;;;;;;;;;12.85;76.85;101974.13;4932965;29;20274;-74
2023/07/18 05:11:04;;;;;;;;;;;;;;;12.90;78.83;101975.81;4932187;29;19923;-75
2023/07/18 05:13:29;;;;;;;;;;;;;;;12.97;78.42;101971.28;4937511;28;19967;-74
2023/07/18 05:15:58;;;;;;;;;;;;;;;13.03;79.22;101968.56;4936644;29;19930;-75
2023/07/18 05:18:24;;;;;;;;;;;;;;;13.09;78.03;101972.91;4950766;29;20422;-75
2023/07/18 05:20:52;;;;;;;;;;;;;;;13.16;77.92;101965.75;4947386;29;20017;-74
2023/07/18 05:23:18;;;;;;;;;;;;;;;13.24;76.12;101980.66;4948191;29;19930;-74
2023/07/18 05:25:43;;;;;;;;;;;;;;;13.31;77.56;101971.72;4951848;29;19922;-74
2023/07/18 05:28:08;;;;;;;;;;;;;;;13.39;78.13;101978.72;4950389;29;19968;-74
2023/07/18 05:30:34;;;;;;;;;;;;;;;13.48;78.29;101975.91;4951809;29;19923;-74
2023/07/18 05:32:59;;;;;;;;;;;;;;;13.55;77.47;101973.13;4951930;29;20346;-74
2023/07/18 05:35:24;;;;;;;;;;;;;;;13.64;78.32;101973.88;4951729;29;20394;-74
2023/07/18 05:37:50;;;;;;;;;;;;;;;13.70;77.65;101973.78;4947443;29;19930;-74
2023/07/18 05:40:15;;;;;;;;;;;;;;;13.76;77.51;101974.53;4950647;29;19926;-74
2023/07/18 05:42:41;;;;;;;;;;;;;;;13.85;77.58;101973.53;4950475;29;19923;-74
2023/07/18 05:45:08;;;;;;;;;;;;;;;13.92;75.74;101975.19;4951774;29;20026;-74
2023/07/18 05:47:34;;;;;;;;;;;;;;;14.01;78.14;101974.13;4950988;28;19962;-74
2023/07/18 05:49:59;;;;;;;;;;;;;;;14.07;78.33;101974.03;4929882;29;20343;-73
2023/07/18 05:52:25;;;;;;;;;;;;;;;14.16;77.83;101987.16;4950143;28;20144;-74
2023/07/18 05:54:51;;;;;;;;;;;;;;;14.22;75.94;101972.84;4948707;28;19970;-74
2023/07/18 05:57:16;;;;;;;;;;;;;;;14.29;77.57;101973.59;4948416;28;19934;-74
2023/07/18 05:59:41;;;;;;;;;;;;;;;14.33;77.56;101981.50;4948950;29;19923;-74
2023/07/18 06:02:07;;;;;;;;;;;;;;;14.39;77.58;101975.16;4952884;28;20317;-73
2023/07/18 06:04:32;;;;;;;;;;;;;;;14.47;78.41;101981.25;4950338;28;19918;-74
2023/07/18 06:06:58;;;;;;;;;;;;;;;14.54;78.04;101982.00;4949447;28;19982;-74
2023/07/18 06:09:23;;;;;;;;;;;;;;;14.61;75.51;101981.88;4920574;29;19944;-74
2023/07/18 06:11:50;;;;;;;;;;;;;;;14.71;77.66;101981.69;4954197;28;20338;-74
2023/07/18 06:14:15;;;;;;;;;;;;;;;14.77;77.22;101989.56;4954491;29;19923;-74
2023/07/18 06:16:40;;;;;;;;;;;;;;;14.85;76.05;101984.94;4955050;29;19922;-74
2023/07/18 06:19:06;;;;;;;;;;;;;;;14.91;76.56;101990.16;4929003;29;19937;-77
2023/07/18 06:21:31;;;;;;;;;;;;;;;14.96;76.25;101988.25;4938518;29;20325;-77
2023/07/18 06:23:57;;;;;;;;;;;;;;;15.03;76.82;101986.31;4918283;29;19923;-77
2023/07/18 06:26:22;;;;;;;;;;;;;;;15.09;76.57;101985.31;4927992;29;19927;-78
2023/07/18 06:28:48;;;;;;;;;;;;;;;15.16;76.28;101977.16;4923689;29;19929;-78
2023/07/18 06:31:14;;;;;;;;;;;;;;;15.26;76.25;101981.34;4949601;29;20223;-75
2023/07/18 06:33:40;;;;;;;;;;;;;;;15.39;75.22;101987.28;4914760;29;19936;-74
2023/07/18 06:36:05;;;;;;;;;;;;;;;15.46;75.01;101990.69;4917927;29;19922;-74
2023/07/18 06:38:31;;;;;;;;;;;;;;;15.54;74.63;101987.81;4956550;28;20310;-75
2023/07/18 06:40:56;;;;;;;;;;;;;;;15.64;73.76;101979.53;4940257;29;19949;-74
2023/07/18 06:43:21;;;;;;;;;;;;;;;15.69;73.90;101977.66;4925245;29;20062;-78
2023/07/18 06:45:47;;;;;;;;;;;;;;;15.78;72.66;101984.59;4947809;29;19926;-75
2023/07/18 06:48:13;;;;;;;;;;;;;;;15.85;72.89;101987.94;4909134;29;19923;-75
2023/07/18 06:50:46;;;;;;;;;;;;;;;15.91;73.00;101990.50;4936197;29;20040;-74
2023/07/18 06:53:11;;;;;;;;;;;;;;;15.98;72.50;101978.72;4933089;29;19994;-74
2023/07/18 06:55:37;;;;;;;;;;;;;;;16.08;72.49;101982.91;4935272;29;19955;-74
2023/07/18 06:58:03;;;;;;;;;;;;;;;16.19;72.09;101974.59;4937204;29;20049;-74
2023/07/18 07:00:28;;;;;;;;;;;;;;;16.31;71.81;101973.38;4930090;29;19930;-74
2023/07/18 07:02:54;;;;;;;;;;;;;;;16.39;72.14;101970.50;4926703;29;19930;-74
2023/07/18 07:05:20;;;;;;;;;;;;;;;16.51;71.59;101964.78;4911281;29;19923;-75
2023/07/18 07:07:45;;;;;;;;;;;;;;;16.62;71.45;101961.84;4931506;29;20022;-74
2023/07/18 07:10:10;;;;;;;;;;;;;;;16.73;71.38;101960.56;4936718;29;19963;-74
2023/07/18 07:12:36;;;;;;;;;;;;;;;16.90;71.27;101967.25;4930914;29;19923;-74
2023/07/18 07:15:01;;;;;;;;;;;;;;;17.04;70.25;101969.53;4934927;29;19923;-74
2023/07/18 07:17:26;;;;;;;;;;;;;;;17.16;70.05;101971.78;4930103;29;19927;-74
2023/07/18 07:19:52;;;;;;;;;;;;;;;17.28;68.68;101962.50;4932581;29;19930;-74
2023/07/18 07:22:18;;;;;;;;;;;;;;;17.37;68.38;101972.94;4933910;29;19923;-74
2023/07/18 07:24:43;;;;;;;;;;;;;;;17.45;68.04;101967.31;4934917;29;20390;-74
2023/07/18 07:27:09;;;;;;;;;;;;;;;17.50;67.75;101966.22;4917910;29;20009;-74
2023/07/18 07:29:37;;;;;;;;;;;;;;;17.59;66.16;101965.06;4946511;29;19934;-74
2023/07/18 07:32:03;;;;;;;;;;;;;;;17.69;65.96;101962.97;4933077;29;20251;-74
2023/07/18 07:34:29;;;;;;;;;;;;;;;17.71;66.04;101959.31;4917790;29;19930;-75
2023/07/18 07:36:55;;;;;;;;;;;;;;;17.84;65.16;101960.66;4917808;29;19986;-74
2023/07/18 07:39:21;;;;;;;;;;;;;;;17.97;64.79;101960.22;4917531;29;20003;-74
2023/07/18 07:41:46;;;;;;;;;;;;;;;18.10;63.93;101966.03;4917626;29;20014;-74
2023/07/18 07:44:11;;;;;;;;;;;;;;;18.17;62.90;101962.19;4934798;29;19962;-74
2023/07/18 07:46:37;;;;;;;;;;;;;;;18.20;61.92;101968.34;4939505;29;19994;-74
2023/07/18 07:49:02;;;;;;;;;;;;;;;18.27;62.33;101967.19;4933700;29;19923;-74
2023/07/18 07:51:27;;;;;;;;;;;;;;;18.39;62.61;101962.31;4933563;29;19921;-74
2023/07/18 07:53:54;;;;;;;;;;;;;;;18.51;61.73;101963.66;4933161;29;19923;-74
2023/07/18 07:56:19;;;;;;;;;;;;;;;18.59;60.43;101959.75;4901767;29;19950;-74
2023/07/18 07:58:45;;;;;;;;;;;;;;;18.69;61.21;101962.97;4934556;29;19923;-75
2023/07/18 08:01:10;;;;;;;;;;;;;;;18.78;59.80;101965.31;4934185;29;20000;-74
2023/07/18 08:03:36;;;;;;;;;;;;;;;18.84;60.03;101961.53;4934508;29;19923;-74
2023/07/18 08:06:01;;;;;;;;;;;;;;;18.91;60.23;101955.84;4941345;29;19918;-73
2023/07/18 08:08:27;;;;;;;;;;;;;;;19.01;59.73;101956.38;4921325;29;19936;-73
2023/07/18 08:10:52;;;;;;;;;;;;;;;19.07;57.39;101955.28;4939304;29;20387;-74
2023/07/18 08:13:18;;;;;;;;;;;;;;;19.14;56.43;101954.09;4934266;29;20395;-73
2023/07/18 08:15:43;;;;;;;;;;;;;;;19.25;56.15;101957.22;4916838;29;20307;-74
2023/07/18 08:18:09;;;;;;;;;;;;;;;19.35;55.66;101955.03;4953003;29;19941;-74
2023/07/18 08:20:34;;;;;;;;;;;;;;;19.47;57.58;101946.47;4952957;29;19926;-73
2023/07/18 08:22:59;;;;;;;;;;;;;;;19.60;54.91;101949.50;4951621;29;19938;-74
2023/07/18 08:25:25;;;;;;;;;;;;;;;19.66;53.69;101945.72;4951822;29;20365;-74
2023/07/18 08:27:50;;;;;;;;;;;;;;;19.74;55.89;101938.22;4946434;29;19919;-74
2023/07/18 08:30:16;;;;;;;;;;;;;;;19.84;55.55;101938.69;4946519;29;19930;-74
2023/07/18 08:32:42;;;;;;;;;;;;;;;19.91;56.28;101943.75;4938482;29;20432;-74
2023/07/18 08:35:08;;;;;;;;;;;;;;;20.09;55.69;101931.28;4951404;29;19953;-74
2023/07/18 08:37:33;;;;;;;;;;;;;;;20.19;54.75;101929.94;4939433;29;20358;-74
2023/07/18 08:39:59;;;;;;;;;;;;;;;20.16;54.94;101930.09;4951604;29;19929;-74
2023/07/18 08:42:26;;;;;;;;;;;;;;;20.27;53.83;101937.66;4952909;29;20346;-74
2023/07/18 08:44:53;;;;;;;;;;;;;;;20.23;51.96;101929.78;4955285;28;19918;-74
2023/07/18 08:47:20;;;;;;;;;;;;;;;20.27;53.19;101929.59;4953063;28;20009;-74
2023/07/18 08:49:45;;;;;;;;;;;;;;;20.45;52.79;101927.00;4953254;29;19918;-74
2023/07/18 08:52:10;;;;;;;;;;;;;;;20.54;51.98;101921.19;4942080;29;19923;-74
2023/07/18 08:54:36;;;;;;;;;;;;;;;20.68;48.24;101916.09;4950172;29;20194;-74
2023/07/18 08:57:02;;;;;;;;;;;;;;;20.73;48.28;101916.75;4951791;29;19998;-74
2023/07/18 08:59:27;;;;;;;;;;;;;;;20.77;50.60;101912.97;4951376;28;19922;-74
2023/07/18 09:01:53;;;;;;;;;;;;;;;20.86;49.41;101911.63;4952858;29;19929;-74
2023/07/18 09:04:18;;;;;;;;;;;;;;;20.96;51.07;101912.06;4951776;29;20337;-73
2023/07/18 09:06:48;;;;;;;;;;;;;;;21.12;48.15;101902.31;4951218;29;20393;-74
2023/07/18 09:09:13;;;;;;;;;;;;;;;21.23;49.19;101899.94;4952393;28;19918;-74
2023/07/18 09:11:51;;;;;;;;;;;;;;;21.42;49.59;101899.06;4945443;29;19927;-74
2023/07/18 09:14:24;;;;;;;;;;;;;;;21.48;48.59;101905.00;4923324;29;20346;-74
2023/07/18 09:16:49;;;;;;;;;;;;;;;21.52;46.88;101894.94;4961683;28;19929;-74
2023/07/18 09:19:15;;;;;;;;;;;;;;;21.63;45.75;101900.63;4952189;28;20362;-74
2023/07/18 09:21:40;;;;;;;;;;;;;;;21.72;45.29;101896.59;4951013;29;20049;-74
2023/07/18 09:24:05;;;;;;;;;;;;;;;21.78;44.93;101901.66;4934579;29;19927;-73
2023/07/18 09:26:31;;;;;;;;;;;;;;;21.74;43.72;101883.06;4951390;29;19919;-73
2023/07/18 09:28:56;;;;;;;;;;;;;;;21.55;44.45;101889.38;4963278;28;19922;-74
2023/07/18 09:31:23;;;;;;;;;;;;;;;21.30;43.16;101881.66;4952121;29;19953;-73
2023/07/18 09:33:49;;;;;;;;;;;;;;;21.28;44.53;101878.16;4952112;29;19926;-74
2023/07/18 09:36:22;;;;;;;;;;;;;;;21.41;43.77;101873.94;4951040;29;20188;-74
2023/07/18 09:38:48;;;;;;;;;;;;;;;21.45;43.48;101875.50;4952669;29;19996;-74
2023/07/18 09:41:15;;;;;;;;;;;;;;;21.53;43.83;101875.09;4952679;29;20378;-74
2023/07/18 09:43:41;;;;;;;;;;;;;;;21.60;43.43;101883.75;4951255;29;19914;-74
2023/07/18 09:46:07;;;;;;;;;;;;;;;21.46;43.81;101876.38;4954232;28;20041;-74
2023/07/18 09:48:32;;;;;;;;;;;;;;;21.34;43.82;101891.34;4934206;29;20412;-74
2023/07/18 09:50:59;;;;;;;;;;;;;;;21.25;43.75;101883.69;4954967;29;19966;-74
2023/07/18 09:53:26;;;;;;;;;;;;;;;21.34;44.27;101887.75;4955985;29;20033;-74
2023/07/18 09:55:52;;;;;;;;;;;;;;;21.54;44.35;101886.75;4938632;29;20016;-74
2023/07/18 09:58:20;;;;;;;;;;;;;;;21.79;43.80;101876.47;4955388;28;20025;-74
2023/07/18 10:00:46;;;;;;;;;;;;;;;21.95;42.73;101876.50;4954249;29;19930;-74
2023/07/18 10:03:12;;;;;;;;;;;;;;;22.11;42.62;101882.84;4936886;29;19965;-74
2023/07/18 10:05:37;;;;;;;;;;;;;;;22.23;41.99;101875.06;4953857;29;19984;-74
2023/07/18 10:08:04;;;;;;;;;;;;;;;22.35;42.26;101868.13;4954413;29;20365;-73
2023/07/18 10:10:31;;;;;;;;;;;;;;;22.38;43.43;101868.84;4953990;28;19929;-74
2023/07/18 10:12:58;;;;;;;;;;;;;;;22.34;44.03;101861.84;4954294;29;19938;-74
2023/07/18 10:15:23;;;;;;;;;;;;;;;22.48;43.18;101853.88;4954035;29;20290;-74
2023/07/18 10:17:49;;;;;;;;;;;;;;;22.67;43.03;101864.47;4955478;29;19934;-74
2023/07/18 10:20:22;;;;;;;;;;;;;;;22.87;41.97;101849.88;4938092;29;20354;-74
2023/07/18 10:22:48;;;;;;;;;;;;;;;23.03;39.40;101852.56;4933492;29;19918;-74
2023/07/18 10:25:14;;;;;;;;;;;;;;;22.86;39.40;101840.00;4954249;29;19919;-73
2023/07/18 10:27:40;;;;;;;;;;;;;;;22.71;39.33;101833.66;4955542;29;20017;-74
2023/07/18 10:30:09;;;;;;;;;;;;;;;22.59;40.89;101828.97;4955457;29;20342;-74
2023/07/18 10:32:37;;;;;;;;;;;;;;;22.57;40.96;101832.72;4955318;29;20013;-74
2023/07/18 10:35:11;;;;;;;;;;;;;;;22.57;42.61;101833.56;4954897;29;20317;-74
2023/07/18 10:37:41;;;;;;;;;;;;;;;22.71;40.43;101830.97;4955430;29;19918;-74
2023/07/18 10:40:08;;;;;;;;;;;;;;;22.93;39.88;101824.34;4955189;29;20281;-75
2023/07/18 10:42:34;;;;;;;;;;;;;;;23.17;41.07;101816.66;4937879;29;20312;-75
2023/07/18 10:45:04;;;;;;;;;;;;;;;23.47;41.24;101797.72;4955172;29;19926;-74
2023/07/18 10:47:30;;;;;;;;;;;;;;;23.54;39.67;101809.91;4955226;29;19962;-75
2023/07/18 10:49:56;;;;;;;;;;;;;;;23.59;41.30;101810.47;4954883;29;19969;-75
2023/07/18 10:52:22;;;;;;;;;;;;;;;23.85;42.06;101804.44;4955336;29;20024;-75
2023/07/18 10:54:47;;;;;;;;;;;;;;;24.09;40.76;101810.16;4954926;29;19918;-75
2023/07/18 10:57:14;;;;;;;;;;;;;;;24.15;38.36;101801.63;4954869;28;20437;-75
2023/07/18 10:59:41;;;;;;;;;;;;;;;24.16;38.61;101795.25;4937292;29;19919;-75
2023/07/18 11:02:06;;;;;;;;;;;;;;;24.29;38.44;101807.03;4954710;29;20441;-74
2023/07/18 11:04:32;;;;;;;;;;;;;;;24.38;38.75;101802.84;4936363;29;19923;-75
2023/07/18 11:06:59;;;;;;;;;;;;;;;24.49;38.16;101799.50;4954776;29;20029;-75
2023/07/18 11:09:24;;;;;;;;;;;;;;;24.60;39.26;101799.66;4958558;28;20215;-75
2023/07/18 11:11:50;;;;;;;;;;;;;;;24.88;39.80;101791.44;4937368;29;19977;-75
2023/07/18 11:14:16;;;;;;;;;;;;;;;25.18;38.60;101794.91;4953035;29;19927;-75
2023/07/18 11:16:42;;;;;;;;;;;;;;;25.26;35.79;101800.66;4954573;29;20258;-75
2023/07/18 11:19:08;;;;;;;;;;;;;;;25.20;34.05;101806.53;4954244;29;19925;-75
2023/07/18 11:21:34;;;;;;;;;;;;;;;25.12;34.30;101809.69;4954469;29;19926;-74
2023/07/18 11:23:59;;;;;;;;;;;;;;;25.02;34.25;101797.75;4954314;29;20295;-75
2023/07/18 11:26:25;;;;;;;;;;;;;;;24.97;34.28;101794.47;4954355;29;20021;-74
2023/07/18 11:28:51;;;;;;;;;;;;;;;24.96;33.84;101788.19;4952708;29;19922;-75
2023/07/18 11:31:19;;;;;;;;;;;;;;;25.10;33.45;101784.56;4954427;29;20295;-75
2023/07/18 11:33:54;;;;;;;;;;;;;;;25.35;36.15;101775.63;4954217;29;19993;-75
2023/07/18 11:36:21;;;;;;;;;;;;;;;25.69;36.34;101771.44;4952962;29;19929;-75
2023/07/18 11:38:49;;;;;;;;;;;;;;;25.84;32.56;101774.91;4954236;29;19925;-75
2023/07/18 11:41:29;;;;;;;;;;;;;;;25.74;33.22;101782.81;4953821;29;19969;-75
2023/07/18 11:43:54;;;;;;;;;;;;;;;25.70;33.38;101785.84;4952447;29;20433;-75
2023/07/18 11:46:33;;;;;;;;;;;;;;;25.82;33.15;101779.56;4952489;28;20016;-75
2023/07/18 11:48:58;;;;;;;;;;;;;;;25.86;32.24;101769.38;4952326;29;19979;-75
2023/07/18 11:51:25;;;;;;;;;;;;;;;25.88;33.50;101762.84;4953999;29;19926;-76
2023/07/18 11:53:51;;;;;;;;;;;;;;;25.95;34.88;101771.44;4953779;29;19919;-75
2023/07/18 11:56:17;;;;;;;;;;;;;;;26.07;33.95;101762.41;4953695;29;20025;-75
2023/07/18 11:58:42;;;;;;;;;;;;;;;26.14;35.37;101760.13;4951988;29;20009;-75
2023/07/18 12:01:07;;;;;;;;;;;;;;;26.38;31.38;101749.25;4953556;29;19926;-75
2023/07/18 12:03:33;;;;;;;;;;;;;;;26.47;30.33;101745.00;4950009;28;19931;-75
2023/07/18 12:05:58;;;;;;;;;;;;;;;26.53;33.01;101739.13;4953722;29;19922;-75
2023/07/18 12:08:24;;;;;;;;;;;;;;;26.69;30.21;101747.00;4952475;28;19922;-75
2023/07/18 12:10:49;;;;;;;;;;;;;;;26.65;32.26;101740.94;4952558;29;20028;-78
2023/07/18 12:13:16;;;;;;;;;;;;;;;26.49;30.79;101735.78;4952422;29;19974;-78
2023/07/18 12:15:41;;;;;;;;;;;;;;;26.51;30.56;101736.53;4952845;29;19976;-78
2023/07/18 12:18:06;;;;;;;;;;;;;;;26.69;33.09;101742.44;4935560;29;21766;-78
2023/07/18 12:20:32;;;;;;;;;;;;;;;27.01;31.33;101750.00;4953016;29;19938;-78
2023/07/18 12:22:59;;;;;;;;;;;;;;;27.08;32.78;101744.91;4935439;29;19919;-78
2023/07/18 12:25:30;;;;;;;;;;;;;;;27.29;33.86;101743.28;4953051;29;19923;-78
2023/07/18 12:27:55;;;;;;;;;;;;;;;27.61;34.18;101738.03;4935697;29;19933;-77
2023/07/18 12:30:21;;;;;;;;;;;;;;;27.94;31.44;101739.03;4934372;29;20290;-78